KAL40M RKSI-RPLL
Flight info
| Callsign | KAL40M |
|---|---|
| Flight time | 3h 41m |
| Altitude | 38000 |
| Route | BOPTA3H BOPTA Z51 BEDES Y711 KIDOS Z81 CJU Y572 RUGMA Y579 RUSAR Y27 SAKON A582 POLIO POLIO1C |
| Aircraft | B77W/H-SDE1E2E3FGHIJ2J3J4J5M1RWXY/LB1D1 |
Departure
| Time | 2026-05-06 20:43 |
|---|---|
| Airport | Incheon International Airport (RKSI) |
Arrival
| Time | 2026-05-07 00:25 |
|---|---|
| Airport | Ninoy Aquino International Airport (RPLL) |
| Time | Latitude | Longitude | Altitude | Speed | Heading |
|---|---|---|---|---|---|
| 2026-05-06 20:04 | 37.44511 | 126.44744 | 36 ft | 0 kts | 50° |
| 2026-05-06 20:30 | 37.44508 | 126.44739 | 37 ft | 3 kts | 50° |
| 2026-05-06 20:30 | 37.44491 | 126.44713 | 36 ft | 4 kts | 50° |
| 2026-05-06 20:31 | 37.44474 | 126.44687 | 37 ft | 4 kts | 50° |
| 2026-05-06 20:31 | 37.44461 | 126.44666 | 37 ft | 4 kts | 76° |
| 2026-05-06 20:31 | 37.44464 | 126.44637 | 34 ft | 4 kts | 129° |
| 2026-05-06 20:31 | 37.44483 | 126.44615 | 34 ft | 4 kts | 146° |
| 2026-05-06 20:32 | 37.44506 | 126.44598 | 36 ft | 4 kts | 156° |
| 2026-05-06 20:32 | 37.44532 | 126.44586 | 36 ft | 4 kts | 163° |
| 2026-05-06 20:32 | 37.44552 | 126.44579 | 36 ft | 4 kts | 160° |
| 2026-05-06 20:32 | 37.44576 | 126.44564 | 35 ft | 4 kts | 145° |
| 2026-05-06 20:33 | 37.44593 | 126.44548 | 36 ft | 3 kts | 145° |
| 2026-05-06 20:33 | 37.44615 | 126.44529 | 36 ft | 4 kts | 145° |
| 2026-05-06 20:33 | 37.44637 | 126.44509 | 35 ft | 4 kts | 145° |
| 2026-05-06 20:33 | 37.44659 | 126.44489 | 35 ft | 4 kts | 145° |
| 2026-05-06 20:34 | 37.44682 | 126.44470 | 35 ft | 4 kts | 144° |
| 2026-05-06 20:34 | 37.44704 | 126.44450 | 36 ft | 4 kts | 144° |
| 2026-05-06 20:34 | 37.44710 | 126.44444 | 37 ft | 0 kts | 144° |
| 2026-05-06 20:36 | 37.44707 | 126.44447 | 36 ft | 2 kts | 144° |
| 2026-05-06 20:36 | 37.44643 | 126.44464 | 35 ft | 15 kts | 199° |
| 2026-05-06 20:36 | 37.44573 | 126.44363 | 37 ft | 15 kts | 235° |
| 2026-05-06 20:36 | 37.44566 | 126.44246 | 37 ft | 16 kts | 313° |
| 2026-05-06 20:37 | 37.44656 | 126.44164 | 37 ft | 17 kts | 327° |
| 2026-05-06 20:37 | 37.44726 | 126.44105 | 37 ft | 20 kts | 325° |
| 2026-05-06 20:37 | 37.44875 | 126.43972 | 37 ft | 33 kts | 324° |
| 2026-05-06 20:37 | 37.45092 | 126.43775 | 38 ft | 41 kts | 324° |
| 2026-05-06 20:38 | 37.45319 | 126.43572 | 38 ft | 39 kts | 326° |
| 2026-05-06 20:38 | 37.45557 | 126.43365 | 38 ft | 58 kts | 324° |
| 2026-05-06 20:38 | 37.45827 | 126.43119 | 38 ft | 32 kts | 324° |
| 2026-05-06 20:38 | 37.45948 | 126.43011 | 38 ft | 31 kts | 325° |
| 2026-05-06 20:39 | 37.46121 | 126.42859 | 38 ft | 30 kts | 325° |
| 2026-05-06 20:39 | 37.46291 | 126.42708 | 38 ft | 30 kts | 324° |
| 2026-05-06 20:39 | 37.46461 | 126.42557 | 38 ft | 30 kts | 324° |
| 2026-05-06 20:39 | 37.46631 | 126.42405 | 38 ft | 30 kts | 324° |
| 2026-05-06 20:40 | 37.46801 | 126.42254 | 38 ft | 30 kts | 324° |
| 2026-05-06 20:40 | 37.46972 | 126.42102 | 38 ft | 30 kts | 324° |
| 2026-05-06 20:40 | 37.47142 | 126.41949 | 38 ft | 30 kts | 324° |
| 2026-05-06 20:40 | 37.47269 | 126.41815 | 38 ft | 21 kts | 294° |
| 2026-05-06 20:41 | 37.47223 | 126.41643 | 38 ft | 22 kts | 270° |
| 2026-05-06 20:41 | 37.47209 | 126.41465 | 38 ft | 22 kts | 239° |
| 2026-05-06 20:41 | 37.47083 | 126.41429 | 38 ft | 22 kts | 149° |
| 2026-05-06 20:41 | 37.46948 | 126.41476 | 38 ft | 22 kts | 211° |
| 2026-05-06 20:42 | 37.46850 | 126.41381 | 38 ft | 15 kts | 168° |
| 2026-05-06 20:42 | 37.46815 | 126.41401 | 38 ft | 0 kts | 148° |
| 2026-05-06 20:43 | 37.46775 | 126.41434 | 38 ft | 22 kts | 147° |
| 2026-05-06 20:43 | 37.46402 | 126.41759 | 38 ft | 109 kts | 141° |
| 2026-05-06 20:43 | 37.45539 | 126.42532 | 161 ft | 187 kts | 145° |
| 2026-05-06 20:43 | 37.44478 | 126.43468 | 1504 ft | 175 kts | 152° |
| 2026-05-06 20:44 | 37.43497 | 126.44337 | 3109 ft | 178 kts | 153° |
| 2026-05-06 20:44 | 37.42451 | 126.45254 | 4340 ft | 188 kts | 153° |
| 2026-05-06 20:44 | 37.41351 | 126.46219 | 5452 ft | 196 kts | 152° |
| 2026-05-06 20:44 | 37.40215 | 126.47218 | 6503 ft | 202 kts | 151° |
| 2026-05-06 20:45 | 37.39041 | 126.48251 | 7467 ft | 209 kts | 151° |
| 2026-05-06 20:45 | 37.37771 | 126.49103 | 8160 ft | 207 kts | 175° |
| 2026-05-06 20:45 | 37.36353 | 126.49368 | 8726 ft | 209 kts | 175° |
| 2026-05-06 20:45 | 37.34919 | 126.49755 | 9522 ft | 209 kts | 173° |
| 2026-05-06 20:46 | 37.33574 | 126.50179 | 10450 ft | 196 kts | 173° |
| 2026-05-06 20:46 | 37.32258 | 126.50606 | 11052 ft | 201 kts | 173° |
| 2026-05-06 20:46 | 37.30841 | 126.51069 | 11409 ft | 220 kts | 172° |
| 2026-05-06 20:46 | 37.29290 | 126.51582 | 11781 ft | 242 kts | 172° |
| 2026-05-06 20:47 | 37.27612 | 126.52150 | 12164 ft | 266 kts | 170° |
| 2026-05-06 20:47 | 37.25736 | 126.52891 | 12620 ft | 288 kts | 168° |
| 2026-05-06 20:47 | 37.23824 | 126.53691 | 13483 ft | 297 kts | 167° |
| 2026-05-06 20:47 | 37.21834 | 126.54527 | 14348 ft | 305 kts | 168° |
| 2026-05-06 20:48 | 37.19805 | 126.55374 | 15245 ft | 309 kts | 168° |
| 2026-05-06 20:48 | 37.17755 | 126.56222 | 16182 ft | 313 kts | 169° |
| 2026-05-06 20:48 | 37.15663 | 126.57080 | 17090 ft | 318 kts | 170° |
| 2026-05-06 20:48 | 37.13547 | 126.57946 | 18025 ft | 322 kts | 171° |
| 2026-05-06 20:49 | 37.11413 | 126.58819 | 18868 ft | 326 kts | 171° |
| 2026-05-06 20:49 | 37.09237 | 126.59709 | 19694 ft | 330 kts | 171° |
| 2026-05-06 20:49 | 37.07041 | 126.60607 | 20502 ft | 335 kts | 171° |
| 2026-05-06 20:49 | 37.04814 | 126.61516 | 21329 ft | 340 kts | 171° |
| 2026-05-06 20:50 | 37.02505 | 126.62359 | 21735 ft | 352 kts | 179° |
| 2026-05-06 20:50 | 37.00026 | 126.62525 | 21885 ft | 365 kts | 189° |
| 2026-05-06 20:50 | 36.97403 | 126.62436 | 22056 ft | 389 kts | 188° |
| 2026-05-06 20:50 | 36.94617 | 126.62392 | 22226 ft | 411 kts | 187° |
| 2026-05-06 20:51 | 36.91707 | 126.62409 | 22658 ft | 424 kts | 186° |
| 2026-05-06 20:51 | 36.88724 | 126.62450 | 23232 ft | 432 kts | 186° |
| 2026-05-06 20:51 | 36.85709 | 126.62401 | 23872 ft | 434 kts | 189° |
| 2026-05-06 20:51 | 36.82692 | 126.62197 | 24470 ft | 436 kts | 190° |
| 2026-05-06 20:52 | 36.79643 | 126.61970 | 25038 ft | 441 kts | 189° |
| 2026-05-06 20:52 | 36.76559 | 126.61766 | 25577 ft | 446 kts | 189° |
| 2026-05-06 20:52 | 36.73433 | 126.61656 | 26093 ft | 455 kts | 184° |
| 2026-05-06 20:52 | 36.70291 | 126.62319 | 26555 ft | 473 kts | 172° |
| 2026-05-06 20:53 | 36.67109 | 126.63497 | 27079 ft | 479 kts | 170° |
| 2026-05-06 20:53 | 36.63902 | 126.64705 | 27573 ft | 483 kts | 170° |
| 2026-05-06 20:53 | 36.60658 | 126.65880 | 27993 ft | 488 kts | 171° |
| 2026-05-06 20:53 | 36.57375 | 126.67020 | 28446 ft | 492 kts | 171° |
| 2026-05-06 20:54 | 36.54055 | 126.68141 | 28887 ft | 496 kts | 172° |
| 2026-05-06 20:54 | 36.50709 | 126.69257 | 29314 ft | 499 kts | 172° |
| 2026-05-06 20:54 | 36.47335 | 126.70379 | 29712 ft | 503 kts | 172° |
| 2026-05-06 20:54 | 36.43946 | 126.71509 | 30104 ft | 506 kts | 172° |
| 2026-05-06 20:55 | 36.40543 | 126.72648 | 30576 ft | 505 kts | 172° |
| 2026-05-06 20:55 | 36.37166 | 126.73781 | 31159 ft | 501 kts | 172° |
| 2026-05-06 20:55 | 36.33813 | 126.74910 | 31731 ft | 498 kts | 172° |
| 2026-05-06 20:55 | 36.30487 | 126.76031 | 32234 ft | 497 kts | 172° |
| 2026-05-06 20:56 | 36.27149 | 126.77155 | 32713 ft | 496 kts | 172° |
| 2026-05-06 20:56 | 36.23832 | 126.78270 | 33204 ft | 494 kts | 172° |
| 2026-05-06 20:56 | 36.20560 | 126.79368 | 33703 ft | 492 kts | 173° |
| 2026-05-06 20:56 | 36.17242 | 126.80241 | 34135 ft | 484 kts | 179° |
| 2026-05-06 20:57 | 36.13914 | 126.80663 | 34513 ft | 478 kts | 184° |
| 2026-05-06 20:57 | 36.10612 | 126.80746 | 34930 ft | 471 kts | 189° |
| 2026-05-06 20:57 | 36.07370 | 126.80452 | 35355 ft | 465 kts | 193° |
| 2026-05-06 20:57 | 36.04163 | 126.80062 | 35766 ft | 463 kts | 193° |
| 2026-05-06 20:58 | 36.00961 | 126.79678 | 36152 ft | 462 kts | 193° |
| 2026-05-06 20:58 | 35.97765 | 126.79311 | 36507 ft | 461 kts | 192° |
| 2026-05-06 20:58 | 35.94580 | 126.78960 | 36869 ft | 460 kts | 192° |
| 2026-05-06 20:58 | 35.91394 | 126.78617 | 37227 ft | 459 kts | 192° |
| 2026-05-06 20:59 | 35.88217 | 126.78275 | 37589 ft | 458 kts | 192° |
| 2026-05-06 20:59 | 35.85048 | 126.77935 | 37921 ft | 457 kts | 192° |
| 2026-05-06 20:59 | 35.81857 | 126.77589 | 37974 ft | 461 kts | 192° |
| 2026-05-06 21:00 | 35.75459 | 126.76898 | 37994 ft | 460 kts | 192° |
| 2026-05-06 21:00 | 35.69127 | 126.76222 | 38004 ft | 454 kts | 192° |
| 2026-05-06 21:01 | 35.62839 | 126.75546 | 38016 ft | 453 kts | 192° |
| 2026-05-06 21:01 | 35.56597 | 126.74874 | 37998 ft | 453 kts | 192° |
| 2026-05-06 21:02 | 35.50311 | 126.74202 | 38017 ft | 454 kts | 192° |
| 2026-05-06 21:02 | 35.44006 | 126.73530 | 38020 ft | 456 kts | 192° |
| 2026-05-06 21:03 | 35.37680 | 126.72859 | 37995 ft | 457 kts | 192° |
| 2026-05-06 21:03 | 35.31336 | 126.72186 | 38013 ft | 458 kts | 192° |
| 2026-05-06 21:04 | 35.24990 | 126.71517 | 38016 ft | 458 kts | 192° |
| 2026-05-06 21:04 | 35.18632 | 126.70846 | 38002 ft | 459 kts | 191° |
| 2026-05-06 21:05 | 35.12266 | 126.70176 | 38019 ft | 459 kts | 191° |
| 2026-05-06 21:05 | 35.05896 | 126.69501 | 38020 ft | 460 kts | 191° |
| 2026-05-06 21:06 | 34.99522 | 126.68827 | 38024 ft | 460 kts | 191° |
| 2026-05-06 21:06 | 34.93147 | 126.68153 | 38021 ft | 460 kts | 191° |
| 2026-05-06 21:07 | 34.86811 | 126.67485 | 38021 ft | 460 kts | 191° |
| 2026-05-06 21:07 | 34.80401 | 126.66810 | 38013 ft | 460 kts | 191° |
| 2026-05-06 21:08 | 34.74073 | 126.66146 | 38028 ft | 459 kts | 191° |
| 2026-05-06 21:08 | 34.67701 | 126.65476 | 38018 ft | 459 kts | 191° |
| 2026-05-06 21:09 | 34.61348 | 126.64810 | 38020 ft | 458 kts | 191° |
| 2026-05-06 21:09 | 34.55007 | 126.64149 | 38015 ft | 457 kts | 191° |
| 2026-05-06 21:10 | 34.48679 | 126.63487 | 38024 ft | 456 kts | 191° |
| 2026-05-06 21:10 | 34.42353 | 126.62826 | 38024 ft | 456 kts | 191° |
| 2026-05-06 21:11 | 34.36037 | 126.62150 | 38020 ft | 455 kts | 191° |
| 2026-05-06 21:11 | 34.29721 | 126.61465 | 38019 ft | 456 kts | 191° |
| 2026-05-06 21:12 | 34.23437 | 126.60790 | 38031 ft | 457 kts | 191° |
| 2026-05-06 21:12 | 34.17098 | 126.60128 | 38023 ft | 457 kts | 190° |
| 2026-05-06 21:13 | 34.10748 | 126.59469 | 38028 ft | 459 kts | 190° |
| 2026-05-06 21:13 | 34.04386 | 126.58807 | 38029 ft | 460 kts | 190° |
| 2026-05-06 21:14 | 33.98001 | 126.58142 | 38009 ft | 461 kts | 190° |
| 2026-05-06 21:14 | 33.91604 | 126.57478 | 38023 ft | 462 kts | 190° |
| 2026-05-06 21:15 | 33.85189 | 126.56866 | 38019 ft | 465 kts | 187° |
| 2026-05-06 21:15 | 33.78682 | 126.57281 | 38005 ft | 471 kts | 179° |
| 2026-05-06 21:16 | 33.72159 | 126.58165 | 38019 ft | 472 kts | 179° |
| 2026-05-06 21:16 | 33.65629 | 126.59016 | 38019 ft | 472 kts | 179° |
| 2026-05-06 21:17 | 33.59095 | 126.59835 | 38019 ft | 472 kts | 180° |
| 2026-05-06 21:17 | 33.52552 | 126.60649 | 38013 ft | 472 kts | 179° |
| 2026-05-06 21:18 | 33.46016 | 126.61464 | 38023 ft | 473 kts | 179° |
| 2026-05-06 21:18 | 33.39516 | 126.62352 | 38020 ft | 476 kts | 176° |
| 2026-05-06 21:19 | 33.33068 | 126.64388 | 38010 ft | 483 kts | 167° |
| 2026-05-06 21:19 | 33.26707 | 126.66958 | 38022 ft | 483 kts | 167° |
| 2026-05-06 21:20 | 33.20304 | 126.69439 | 38022 ft | 484 kts | 167° |
| 2026-05-06 21:20 | 33.13895 | 126.71922 | 38023 ft | 485 kts | 167° |
| 2026-05-06 21:21 | 33.07481 | 126.74414 | 38001 ft | 485 kts | 167° |
| 2026-05-06 21:21 | 33.01057 | 126.76906 | 38016 ft | 486 kts | 167° |
| 2026-05-06 21:22 | 32.94621 | 126.79398 | 38025 ft | 486 kts | 167° |
| 2026-05-06 21:22 | 32.88184 | 126.81892 | 38019 ft | 487 kts | 167° |
| 2026-05-06 21:23 | 32.81737 | 126.84387 | 38020 ft | 487 kts | 167° |
| 2026-05-06 21:23 | 32.75287 | 126.86880 | 38020 ft | 487 kts | 167° |
| 2026-05-06 21:24 | 32.68830 | 126.89370 | 38018 ft | 487 kts | 167° |
| 2026-05-06 21:24 | 32.62382 | 126.91854 | 38018 ft | 487 kts | 167° |
| 2026-05-06 21:25 | 32.55937 | 126.94334 | 38016 ft | 487 kts | 167° |
| 2026-05-06 21:25 | 32.49491 | 126.96806 | 38019 ft | 486 kts | 167° |
| 2026-05-06 21:26 | 32.43005 | 126.99025 | 38026 ft | 485 kts | 169° |
| 2026-05-06 21:26 | 32.36548 | 127.01132 | 38020 ft | 485 kts | 169° |
| 2026-05-06 21:27 | 32.30050 | 127.03307 | 38014 ft | 486 kts | 169° |
| 2026-05-06 21:27 | 32.23540 | 127.05498 | 38022 ft | 486 kts | 169° |
| 2026-05-06 21:28 | 32.17019 | 127.07693 | 38017 ft | 487 kts | 169° |
| 2026-05-06 21:28 | 32.10497 | 127.09885 | 38007 ft | 488 kts | 169° |
| 2026-05-06 21:29 | 32.05058 | 127.11710 | 38012 ft | 489 kts | 168° |
| 2026-05-06 21:29 | 31.98514 | 127.13897 | 38017 ft | 489 kts | 169° |
| 2026-05-06 21:30 | 31.91962 | 127.16076 | 38013 ft | 489 kts | 169° |
| 2026-05-06 21:30 | 31.85412 | 127.18252 | 37996 ft | 489 kts | 168° |
| 2026-05-06 21:31 | 31.78861 | 127.20428 | 38015 ft | 489 kts | 168° |
| 2026-05-06 21:31 | 31.72295 | 127.22605 | 38018 ft | 490 kts | 168° |
| 2026-05-06 21:32 | 31.65731 | 127.24779 | 38012 ft | 490 kts | 168° |
| 2026-05-06 21:32 | 31.55889 | 127.28032 | 38012 ft | 490 kts | 168° |
| 2026-05-06 21:33 | 31.49361 | 127.30185 | 38020 ft | 490 kts | 168° |
| 2026-05-06 21:33 | 31.42783 | 127.32353 | 38019 ft | 491 kts | 168° |
| 2026-05-06 21:34 | 31.36210 | 127.34515 | 38002 ft | 491 kts | 168° |
| 2026-05-06 21:34 | 31.29627 | 127.36679 | 38012 ft | 491 kts | 168° |
| 2026-05-06 21:35 | 31.23039 | 127.38844 | 38019 ft | 492 kts | 168° |
| 2026-05-06 21:35 | 31.16441 | 127.41040 | 38018 ft | 493 kts | 168° |
| 2026-05-06 21:36 | 31.09894 | 127.43226 | 38002 ft | 494 kts | 168° |
| 2026-05-06 21:36 | 31.03280 | 127.45429 | 38014 ft | 494 kts | 168° |
| 2026-05-06 21:37 | 30.96666 | 127.47625 | 38017 ft | 494 kts | 168° |
| 2026-05-06 21:37 | 30.90039 | 127.49822 | 38014 ft | 495 kts | 168° |
| 2026-05-06 21:38 | 30.83411 | 127.52016 | 37999 ft | 495 kts | 168° |
| 2026-05-06 21:38 | 30.76772 | 127.54211 | 38020 ft | 496 kts | 168° |
| 2026-05-06 21:39 | 30.70123 | 127.56405 | 38018 ft | 497 kts | 168° |
| 2026-05-06 21:39 | 30.63510 | 127.58586 | 38017 ft | 497 kts | 168° |
| 2026-05-06 21:40 | 30.56857 | 127.60776 | 38007 ft | 498 kts | 168° |
| 2026-05-06 21:40 | 30.50186 | 127.62969 | 38014 ft | 498 kts | 168° |
| 2026-05-06 21:41 | 30.43515 | 127.65159 | 38011 ft | 498 kts | 168° |
| 2026-05-06 21:41 | 30.36842 | 127.67347 | 38012 ft | 499 kts | 168° |
| 2026-05-06 21:42 | 30.30164 | 127.69533 | 38014 ft | 499 kts | 168° |
| 2026-05-06 21:42 | 30.23492 | 127.71712 | 38005 ft | 499 kts | 168° |
| 2026-05-06 21:43 | 30.16803 | 127.73884 | 38003 ft | 499 kts | 168° |
| 2026-05-06 21:43 | 30.10124 | 127.76051 | 37994 ft | 499 kts | 168° |
| 2026-05-06 21:44 | 30.03446 | 127.78217 | 38006 ft | 499 kts | 168° |
| 2026-05-06 21:44 | 29.96756 | 127.80384 | 38010 ft | 500 kts | 168° |
| 2026-05-06 21:45 | 29.90039 | 127.82465 | 38007 ft | 498 kts | 173° |
| 2026-05-06 21:45 | 29.83200 | 127.83293 | 38003 ft | 491 kts | 184° |
| 2026-05-06 21:46 | 29.76423 | 127.82843 | 38011 ft | 488 kts | 190° |
| 2026-05-06 21:46 | 29.69692 | 127.82138 | 38006 ft | 489 kts | 190° |
| 2026-05-06 21:47 | 29.62896 | 127.81451 | 37992 ft | 490 kts | 189° |
| 2026-05-06 21:47 | 29.56082 | 127.80793 | 38006 ft | 491 kts | 189° |
| 2026-05-06 21:48 | 29.49264 | 127.80148 | 38006 ft | 492 kts | 189° |
| 2026-05-06 21:48 | 29.42433 | 127.79503 | 38005 ft | 493 kts | 189° |
| 2026-05-06 21:49 | 29.35589 | 127.78857 | 37994 ft | 493 kts | 189° |
| 2026-05-06 21:49 | 29.28800 | 127.78215 | 38004 ft | 493 kts | 189° |
| 2026-05-06 21:50 | 29.21954 | 127.77569 | 38006 ft | 494 kts | 189° |
| 2026-05-06 21:50 | 29.15091 | 127.76921 | 37990 ft | 494 kts | 189° |
| 2026-05-06 21:51 | 29.08247 | 127.76277 | 38006 ft | 494 kts | 189° |
| 2026-05-06 21:51 | 29.01392 | 127.75633 | 38008 ft | 494 kts | 189° |
| 2026-05-06 21:52 | 28.94535 | 127.74989 | 37993 ft | 494 kts | 189° |
| 2026-05-06 21:52 | 28.87677 | 127.74346 | 38007 ft | 494 kts | 189° |
| 2026-05-06 21:53 | 28.80817 | 127.73703 | 37996 ft | 495 kts | 189° |
| 2026-05-06 21:53 | 28.73957 | 127.73062 | 37996 ft | 495 kts | 189° |
| 2026-05-06 21:54 | 28.67099 | 127.72421 | 38003 ft | 494 kts | 189° |
| 2026-05-06 21:54 | 28.60285 | 127.71785 | 37999 ft | 495 kts | 189° |
| 2026-05-06 21:55 | 28.53417 | 127.71146 | 38004 ft | 495 kts | 189° |
| 2026-05-06 21:55 | 28.46549 | 127.70506 | 37999 ft | 494 kts | 189° |
| 2026-05-06 21:56 | 28.39692 | 127.69869 | 38003 ft | 494 kts | 189° |
| 2026-05-06 21:56 | 28.32834 | 127.69233 | 38003 ft | 494 kts | 189° |
| 2026-05-06 21:57 | 28.25975 | 127.68597 | 37991 ft | 494 kts | 189° |
| 2026-05-06 21:57 | 28.19163 | 127.67967 | 38003 ft | 494 kts | 189° |
| 2026-05-06 21:58 | 28.12306 | 127.67333 | 38003 ft | 494 kts | 189° |
| 2026-05-06 21:58 | 28.05447 | 127.66700 | 38000 ft | 494 kts | 189° |
| 2026-05-06 21:59 | 27.98587 | 127.66067 | 38003 ft | 495 kts | 189° |
| 2026-05-06 21:59 | 27.91727 | 127.65435 | 38003 ft | 495 kts | 189° |
| 2026-05-06 22:00 | 27.84859 | 127.64804 | 38004 ft | 495 kts | 189° |
| 2026-05-06 22:00 | 27.77998 | 127.64173 | 38004 ft | 494 kts | 189° |
| 2026-05-06 22:01 | 27.71138 | 127.63544 | 38005 ft | 495 kts | 189° |
| 2026-05-06 22:01 | 27.64276 | 127.62915 | 38005 ft | 495 kts | 189° |
| 2026-05-06 22:02 | 27.57460 | 127.62291 | 37992 ft | 495 kts | 189° |
| 2026-05-06 22:02 | 27.50600 | 127.61657 | 38005 ft | 494 kts | 190° |
| 2026-05-06 22:03 | 27.43903 | 127.60249 | 38006 ft | 488 kts | 199° |
| 2026-05-06 22:03 | 27.37332 | 127.58351 | 38006 ft | 488 kts | 199° |
| 2026-05-06 22:04 | 27.30747 | 127.56458 | 38006 ft | 488 kts | 199° |
| 2026-05-06 22:04 | 27.24158 | 127.54603 | 38005 ft | 488 kts | 199° |
| 2026-05-06 22:05 | 27.17562 | 127.52763 | 38005 ft | 488 kts | 199° |
| 2026-05-06 22:05 | 27.10969 | 127.50929 | 37997 ft | 488 kts | 199° |
| 2026-05-06 22:06 | 27.04372 | 127.49095 | 38010 ft | 488 kts | 199° |
| 2026-05-06 22:06 | 26.97807 | 127.47270 | 38013 ft | 489 kts | 199° |
| 2026-05-06 22:07 | 26.91202 | 127.45436 | 38043 ft | 489 kts | 199° |
| 2026-05-06 22:07 | 26.84605 | 127.43606 | 38052 ft | 489 kts | 199° |
| 2026-05-06 22:08 | 26.77998 | 127.41776 | 38041 ft | 489 kts | 199° |
| 2026-05-06 22:08 | 26.71382 | 127.39946 | 38019 ft | 489 kts | 199° |
| 2026-05-06 22:09 | 26.64771 | 127.38120 | 37998 ft | 489 kts | 198° |
| 2026-05-06 22:09 | 26.58163 | 127.36296 | 38001 ft | 489 kts | 198° |
| 2026-05-06 22:10 | 26.51553 | 127.34474 | 38004 ft | 489 kts | 198° |
| 2026-05-06 22:10 | 26.44940 | 127.32653 | 38001 ft | 489 kts | 198° |
| 2026-05-06 22:11 | 26.38329 | 127.30835 | 38010 ft | 489 kts | 198° |
| 2026-05-06 22:11 | 26.31716 | 127.29019 | 38008 ft | 489 kts | 198° |
| 2026-05-06 22:12 | 26.25102 | 127.27205 | 37990 ft | 489 kts | 198° |
| 2026-05-06 22:12 | 26.18484 | 127.25391 | 38004 ft | 489 kts | 198° |
| 2026-05-06 22:13 | 26.11921 | 127.23595 | 38009 ft | 489 kts | 198° |
| 2026-05-06 22:13 | 26.05307 | 127.21786 | 38008 ft | 489 kts | 198° |
| 2026-05-06 22:14 | 25.98700 | 127.19982 | 38001 ft | 489 kts | 198° |
| 2026-05-06 22:14 | 25.92108 | 127.18184 | 38009 ft | 488 kts | 198° |
| 2026-05-06 22:15 | 25.85502 | 127.16384 | 38007 ft | 488 kts | 198° |
| 2026-05-06 22:15 | 25.78913 | 127.14591 | 38009 ft | 488 kts | 198° |
| 2026-05-06 22:16 | 25.72311 | 127.12796 | 38007 ft | 488 kts | 198° |
| 2026-05-06 22:16 | 25.65716 | 127.11005 | 38007 ft | 488 kts | 198° |
| 2026-05-06 22:17 | 25.59120 | 127.09216 | 38008 ft | 488 kts | 198° |
| 2026-05-06 22:17 | 25.53635 | 127.07729 | 38009 ft | 488 kts | 198° |
| 2026-05-06 22:18 | 25.47037 | 127.05942 | 38002 ft | 488 kts | 198° |
| 2026-05-06 22:18 | 25.40436 | 127.04155 | 38003 ft | 488 kts | 198° |
| 2026-05-06 22:19 | 25.33836 | 127.02370 | 37986 ft | 488 kts | 198° |
| 2026-05-06 22:19 | 25.27232 | 127.00586 | 38001 ft | 488 kts | 198° |
| 2026-05-06 22:20 | 25.20611 | 126.98799 | 38398 ft | 491 kts | 198° |
| 2026-05-06 22:20 | 25.17297 | 126.97906 | 38757 ft | 489 kts | 198° |
| 2026-05-06 22:20 | 25.13995 | 126.97017 | 38934 ft | 489 kts | 198° |
| 2026-05-06 22:21 | 25.07375 | 126.95235 | 38992 ft | 488 kts | 198° |
| 2026-05-06 22:21 | 25.00799 | 126.93468 | 38995 ft | 486 kts | 198° |
| 2026-05-06 22:22 | 24.94240 | 126.91706 | 38998 ft | 484 kts | 198° |
| 2026-05-06 22:22 | 24.87706 | 126.89952 | 38989 ft | 483 kts | 198° |
| 2026-05-06 22:23 | 24.81213 | 126.88211 | 38997 ft | 483 kts | 198° |
| 2026-05-06 22:23 | 24.74679 | 126.86461 | 38996 ft | 484 kts | 198° |
| 2026-05-06 22:24 | 24.68137 | 126.84711 | 39002 ft | 485 kts | 198° |
| 2026-05-06 22:24 | 24.61573 | 126.82958 | 38988 ft | 486 kts | 198° |
| 2026-05-06 22:25 | 24.54999 | 126.81204 | 38999 ft | 486 kts | 198° |
| 2026-05-06 22:25 | 24.48415 | 126.79448 | 38997 ft | 487 kts | 198° |
| 2026-05-06 22:26 | 24.41822 | 126.77693 | 38991 ft | 488 kts | 198° |
| 2026-05-06 22:26 | 24.35221 | 126.75937 | 38983 ft | 487 kts | 198° |
| 2026-05-06 22:27 | 24.28635 | 126.74187 | 38991 ft | 487 kts | 198° |
| 2026-05-06 22:27 | 24.22044 | 126.72437 | 38989 ft | 487 kts | 198° |
| 2026-05-06 22:28 | 24.15470 | 126.70693 | 38984 ft | 486 kts | 198° |
| 2026-05-06 22:28 | 24.09055 | 126.68501 | 38987 ft | 479 kts | 207° |
| 2026-05-06 22:29 | 24.02931 | 126.65613 | 38987 ft | 478 kts | 208° |
| 2026-05-06 22:29 | 23.96824 | 126.62716 | 38998 ft | 478 kts | 208° |
| 2026-05-06 22:30 | 23.90746 | 126.59872 | 38991 ft | 478 kts | 207° |
| 2026-05-06 22:30 | 23.84624 | 126.57031 | 38987 ft | 478 kts | 207° |
| 2026-05-06 22:31 | 23.78505 | 126.54198 | 38990 ft | 478 kts | 207° |
| 2026-05-06 22:31 | 23.72386 | 126.51366 | 38988 ft | 478 kts | 207° |
| 2026-05-06 22:32 | 23.66267 | 126.48537 | 38976 ft | 477 kts | 207° |
| 2026-05-06 22:32 | 23.60148 | 126.45709 | 38987 ft | 477 kts | 207° |
| 2026-05-06 22:33 | 23.54024 | 126.42883 | 38981 ft | 478 kts | 207° |
| 2026-05-06 22:33 | 23.47895 | 126.40056 | 38985 ft | 478 kts | 207° |
| 2026-05-06 22:34 | 23.41768 | 126.37234 | 38986 ft | 478 kts | 207° |
| 2026-05-06 22:34 | 23.35634 | 126.34411 | 38984 ft | 479 kts | 207° |
| 2026-05-06 22:35 | 23.29502 | 126.31592 | 38984 ft | 479 kts | 207° |
| 2026-05-06 22:35 | 23.23367 | 126.28775 | 38966 ft | 479 kts | 207° |
| 2026-05-06 22:36 | 23.17252 | 126.25969 | 38980 ft | 480 kts | 207° |
| 2026-05-06 22:36 | 23.11082 | 126.23141 | 38986 ft | 482 kts | 207° |
| 2026-05-06 22:37 | 23.04892 | 126.20307 | 38983 ft | 483 kts | 207° |
| 2026-05-06 22:37 | 22.98693 | 126.17471 | 38973 ft | 484 kts | 207° |
| 2026-05-06 22:38 | 22.92491 | 126.14636 | 38977 ft | 483 kts | 207° |
| 2026-05-06 22:38 | 22.86304 | 126.11794 | 38980 ft | 483 kts | 207° |
| 2026-05-06 22:39 | 22.80135 | 126.08934 | 38975 ft | 482 kts | 208° |
| 2026-05-06 22:39 | 22.73974 | 126.06077 | 38979 ft | 481 kts | 207° |
| 2026-05-06 22:40 | 22.67818 | 126.03230 | 38980 ft | 480 kts | 207° |
| 2026-05-06 22:40 | 22.61691 | 126.00401 | 38975 ft | 479 kts | 207° |
| 2026-05-06 22:41 | 22.52529 | 125.96176 | 38976 ft | 478 kts | 207° |
| 2026-05-06 22:42 | 22.46416 | 125.93360 | 38961 ft | 477 kts | 207° |
| 2026-05-06 22:42 | 22.40310 | 125.90551 | 38975 ft | 477 kts | 207° |
| 2026-05-06 22:43 | 22.34210 | 125.87746 | 38972 ft | 476 kts | 207° |
| 2026-05-06 22:43 | 22.28111 | 125.84945 | 38968 ft | 476 kts | 207° |
| 2026-05-06 22:44 | 22.22013 | 125.82146 | 38970 ft | 476 kts | 207° |
| 2026-05-06 22:44 | 22.15919 | 125.79353 | 38969 ft | 476 kts | 207° |
| 2026-05-06 22:45 | 22.09829 | 125.76563 | 38970 ft | 476 kts | 207° |
| 2026-05-06 22:45 | 22.03722 | 125.73769 | 38965 ft | 476 kts | 207° |
| 2026-05-06 22:46 | 21.97628 | 125.70984 | 38969 ft | 476 kts | 207° |
| 2026-05-06 22:46 | 21.91534 | 125.68201 | 38969 ft | 476 kts | 207° |
| 2026-05-06 22:47 | 21.85433 | 125.65417 | 38967 ft | 476 kts | 207° |
| 2026-05-06 22:47 | 21.79378 | 125.62657 | 38961 ft | 476 kts | 207° |
| 2026-05-06 22:48 | 21.73277 | 125.59878 | 38963 ft | 475 kts | 207° |
| 2026-05-06 22:48 | 21.67190 | 125.57109 | 38964 ft | 475 kts | 207° |
| 2026-05-06 22:49 | 21.61101 | 125.54341 | 38964 ft | 475 kts | 207° |
| 2026-05-06 22:49 | 21.55019 | 125.51578 | 38962 ft | 474 kts | 207° |
| 2026-05-06 22:50 | 21.48940 | 125.48820 | 38961 ft | 474 kts | 207° |
| 2026-05-06 22:50 | 21.42863 | 125.46065 | 38967 ft | 474 kts | 207° |
| 2026-05-06 22:51 | 21.36787 | 125.43313 | 38962 ft | 474 kts | 207° |
| 2026-05-06 22:51 | 21.30706 | 125.40560 | 38963 ft | 474 kts | 206° |
| 2026-05-06 22:52 | 21.24626 | 125.37811 | 38962 ft | 474 kts | 206° |
| 2026-05-06 22:52 | 21.18545 | 125.35064 | 38962 ft | 474 kts | 206° |
| 2026-05-06 22:53 | 21.12460 | 125.32318 | 38961 ft | 474 kts | 206° |
| 2026-05-06 22:53 | 21.06417 | 125.29592 | 38962 ft | 474 kts | 206° |
| 2026-05-06 22:54 | 21.00333 | 125.26838 | 38961 ft | 474 kts | 208° |
| 2026-05-06 22:54 | 20.94511 | 125.23593 | 38967 ft | 471 kts | 212° |
| 2026-05-06 22:55 | 20.88769 | 125.20208 | 38956 ft | 472 kts | 212° |
| 2026-05-06 22:55 | 20.83009 | 125.16826 | 38951 ft | 472 kts | 212° |
| 2026-05-06 22:56 | 20.77229 | 125.13460 | 38963 ft | 473 kts | 212° |
| 2026-05-06 22:56 | 20.71449 | 125.10107 | 38959 ft | 473 kts | 212° |
| 2026-05-06 22:57 | 20.65666 | 125.06756 | 38953 ft | 473 kts | 212° |
| 2026-05-06 22:57 | 20.59878 | 125.03404 | 38951 ft | 473 kts | 212° |
| 2026-05-06 22:58 | 20.54091 | 125.00055 | 38954 ft | 473 kts | 212° |
| 2026-05-06 22:58 | 20.48329 | 124.96723 | 38953 ft | 474 kts | 212° |
| 2026-05-06 22:59 | 20.42529 | 124.93372 | 38954 ft | 474 kts | 212° |
| 2026-05-06 22:59 | 20.36729 | 124.90024 | 38946 ft | 474 kts | 212° |
| 2026-05-06 23:00 | 20.30931 | 124.86680 | 38953 ft | 474 kts | 212° |
| 2026-05-06 23:00 | 20.25138 | 124.83342 | 38956 ft | 473 kts | 212° |
| 2026-05-06 23:01 | 20.19340 | 124.80004 | 38956 ft | 473 kts | 212° |
| 2026-05-06 23:01 | 20.13548 | 124.76672 | 38949 ft | 473 kts | 212° |
| 2026-05-06 23:02 | 20.07804 | 124.73370 | 38950 ft | 472 kts | 212° |
| 2026-05-06 23:02 | 20.02024 | 124.70051 | 38948 ft | 472 kts | 212° |
| 2026-05-06 23:03 | 19.96245 | 124.66735 | 38952 ft | 472 kts | 212° |
| 2026-05-06 23:03 | 19.90470 | 124.63424 | 38952 ft | 472 kts | 212° |
| 2026-05-06 23:04 | 19.84689 | 124.60112 | 38954 ft | 472 kts | 211° |
| 2026-05-06 23:04 | 19.78909 | 124.56804 | 38951 ft | 472 kts | 211° |
| 2026-05-06 23:05 | 19.73130 | 124.53498 | 38952 ft | 472 kts | 211° |
| 2026-05-06 23:05 | 19.67353 | 124.50197 | 38952 ft | 472 kts | 211° |
| 2026-05-06 23:06 | 19.62543 | 124.47450 | 38941 ft | 473 kts | 211° |
| 2026-05-06 23:06 | 19.56744 | 124.44141 | 38951 ft | 473 kts | 211° |
| 2026-05-06 23:07 | 19.50943 | 124.40834 | 38954 ft | 473 kts | 211° |
| 2026-05-06 23:07 | 19.45140 | 124.37529 | 38951 ft | 474 kts | 211° |
| 2026-05-06 23:08 | 19.39327 | 124.34220 | 38938 ft | 474 kts | 211° |
| 2026-05-06 23:08 | 19.33505 | 124.30909 | 38946 ft | 475 kts | 211° |
| 2026-05-06 23:09 | 19.27683 | 124.27601 | 38949 ft | 475 kts | 211° |
| 2026-05-06 23:09 | 19.21852 | 124.24291 | 38948 ft | 476 kts | 211° |
| 2026-05-06 23:10 | 19.16017 | 124.20980 | 38943 ft | 476 kts | 211° |
| 2026-05-06 23:10 | 19.10177 | 124.17670 | 38940 ft | 476 kts | 211° |
| 2026-05-06 23:11 | 19.04338 | 124.14363 | 38947 ft | 476 kts | 211° |
| 2026-05-06 23:11 | 18.98492 | 124.11054 | 38942 ft | 477 kts | 211° |
| 2026-05-06 23:12 | 18.92646 | 124.07748 | 38940 ft | 477 kts | 211° |
| 2026-05-06 23:12 | 18.86841 | 124.04468 | 38948 ft | 476 kts | 211° |
| 2026-05-06 23:13 | 18.80995 | 124.01168 | 38940 ft | 475 kts | 211° |
| 2026-05-06 23:13 | 18.75162 | 123.97877 | 38945 ft | 475 kts | 211° |
| 2026-05-06 23:14 | 18.69340 | 123.94595 | 38939 ft | 475 kts | 211° |
| 2026-05-06 23:14 | 18.63519 | 123.91316 | 38945 ft | 475 kts | 211° |
| 2026-05-06 23:15 | 18.57680 | 123.88029 | 38949 ft | 476 kts | 211° |
| 2026-05-06 23:15 | 18.51836 | 123.84743 | 38949 ft | 477 kts | 211° |
| 2026-05-06 23:16 | 18.45984 | 123.81455 | 38949 ft | 477 kts | 211° |
| 2026-05-06 23:16 | 18.40125 | 123.78165 | 38945 ft | 478 kts | 211° |
| 2026-05-06 23:17 | 18.34264 | 123.74876 | 38947 ft | 477 kts | 210° |
| 2026-05-06 23:17 | 18.28420 | 123.71601 | 38943 ft | 476 kts | 210° |
| 2026-05-06 23:18 | 18.22573 | 123.68325 | 38946 ft | 475 kts | 210° |
| 2026-05-06 23:18 | 18.16733 | 123.65056 | 38942 ft | 475 kts | 210° |
| 2026-05-06 23:19 | 18.10901 | 123.61793 | 38962 ft | 475 kts | 210° |
| 2026-05-06 23:19 | 18.05100 | 123.58551 | 38941 ft | 475 kts | 210° |
| 2026-05-06 23:20 | 17.99264 | 123.55292 | 38944 ft | 475 kts | 210° |
| 2026-05-06 23:20 | 17.93432 | 123.52037 | 38950 ft | 474 kts | 210° |
| 2026-05-06 23:21 | 17.87600 | 123.48784 | 38958 ft | 474 kts | 210° |
| 2026-05-06 23:21 | 17.81778 | 123.45540 | 38953 ft | 473 kts | 210° |
| 2026-05-06 23:22 | 17.75962 | 123.42301 | 38950 ft | 473 kts | 210° |
| 2026-05-06 23:22 | 17.70155 | 123.39069 | 38947 ft | 472 kts | 210° |
| 2026-05-06 23:23 | 17.64353 | 123.35842 | 38935 ft | 472 kts | 210° |
| 2026-05-06 23:23 | 17.58548 | 123.32618 | 38943 ft | 471 kts | 210° |
| 2026-05-06 23:24 | 17.52743 | 123.29399 | 38947 ft | 471 kts | 210° |
| 2026-05-06 23:24 | 17.46943 | 123.26185 | 38950 ft | 471 kts | 210° |
| 2026-05-06 23:25 | 17.41188 | 123.22997 | 38941 ft | 471 kts | 210° |
| 2026-05-06 23:25 | 17.35395 | 123.19790 | 38941 ft | 471 kts | 210° |
| 2026-05-06 23:26 | 17.29594 | 123.16581 | 38937 ft | 471 kts | 210° |
| 2026-05-06 23:26 | 17.23790 | 123.13372 | 38947 ft | 472 kts | 210° |
| 2026-05-06 23:27 | 17.17987 | 123.10166 | 38942 ft | 473 kts | 210° |
| 2026-05-06 23:27 | 17.12165 | 123.06952 | 38940 ft | 473 kts | 210° |
| 2026-05-06 23:28 | 17.06342 | 123.03740 | 38949 ft | 474 kts | 210° |
| 2026-05-06 23:28 | 17.00509 | 123.00525 | 38946 ft | 474 kts | 210° |
| 2026-05-06 23:29 | 16.94671 | 122.97309 | 38939 ft | 475 kts | 210° |
| 2026-05-06 23:29 | 16.88826 | 122.94091 | 38946 ft | 475 kts | 210° |
| 2026-05-06 23:30 | 16.82971 | 122.90870 | 38941 ft | 475 kts | 210° |
| 2026-05-06 23:30 | 16.77113 | 122.87650 | 38949 ft | 476 kts | 210° |
| 2026-05-06 23:31 | 16.71258 | 122.84434 | 38947 ft | 476 kts | 210° |
| 2026-05-06 23:31 | 16.65396 | 122.81216 | 38946 ft | 476 kts | 210° |
| 2026-05-06 23:32 | 16.59564 | 122.78017 | 38946 ft | 476 kts | 210° |
| 2026-05-06 23:32 | 16.53661 | 122.74781 | 38938 ft | 476 kts | 209° |
| 2026-05-06 23:33 | 16.47826 | 122.71583 | 38937 ft | 477 kts | 209° |
| 2026-05-06 23:33 | 16.41955 | 122.68369 | 38947 ft | 477 kts | 209° |
| 2026-05-06 23:34 | 16.36077 | 122.65152 | 38947 ft | 477 kts | 209° |
| 2026-05-06 23:34 | 16.30205 | 122.61939 | 38947 ft | 478 kts | 209° |
| 2026-05-06 23:35 | 16.24311 | 122.58715 | 38939 ft | 478 kts | 209° |
| 2026-05-06 23:35 | 16.18422 | 122.55495 | 38942 ft | 478 kts | 209° |
| 2026-05-06 23:36 | 16.12534 | 122.52278 | 38946 ft | 478 kts | 209° |
| 2026-05-06 23:36 | 16.06645 | 122.49063 | 38945 ft | 478 kts | 209° |
| 2026-05-06 23:37 | 16.00792 | 122.45870 | 38944 ft | 478 kts | 209° |
| 2026-05-06 23:37 | 15.94901 | 122.42658 | 38939 ft | 478 kts | 209° |
| 2026-05-06 23:38 | 15.89010 | 122.39448 | 38942 ft | 478 kts | 209° |
| 2026-05-06 23:38 | 15.83122 | 122.36243 | 38942 ft | 478 kts | 209° |
| 2026-05-06 23:39 | 15.77227 | 122.33035 | 38942 ft | 478 kts | 209° |
| 2026-05-06 23:39 | 15.71342 | 122.29834 | 38936 ft | 478 kts | 209° |
| 2026-05-06 23:40 | 15.65444 | 122.26630 | 38947 ft | 478 kts | 209° |
| 2026-05-06 23:40 | 15.59552 | 122.23430 | 38938 ft | 478 kts | 209° |
| 2026-05-06 23:41 | 15.53650 | 122.20227 | 38940 ft | 478 kts | 209° |
| 2026-05-06 23:41 | 15.47757 | 122.17031 | 38944 ft | 479 kts | 209° |
| 2026-05-06 23:42 | 15.41852 | 122.13830 | 38937 ft | 478 kts | 208° |
| 2026-05-06 23:42 | 15.35966 | 122.10642 | 38910 ft | 475 kts | 208° |
| 2026-05-06 23:42 | 15.33034 | 122.09055 | 38668 ft | 474 kts | 208° |
| 2026-05-06 23:43 | 15.30102 | 122.07468 | 38235 ft | 477 kts | 208° |
| 2026-05-06 23:43 | 15.27159 | 122.05875 | 37720 ft | 480 kts | 208° |
| 2026-05-06 23:43 | 15.24188 | 122.04267 | 37240 ft | 483 kts | 208° |
| 2026-05-06 23:43 | 15.21208 | 122.02656 | 36784 ft | 484 kts | 208° |
| 2026-05-06 23:44 | 15.18211 | 122.01036 | 36000 ft | 486 kts | 208° |
| 2026-05-06 23:44 | 15.15250 | 121.99436 | 35168 ft | 487 kts | 208° |
| 2026-05-06 23:44 | 15.12251 | 121.97815 | 34655 ft | 481 kts | 208° |
| 2026-05-06 23:44 | 15.09319 | 121.96233 | 34411 ft | 470 kts | 208° |
| 2026-05-06 23:45 | 15.06459 | 121.94687 | 34215 ft | 458 kts | 209° |
| 2026-05-06 23:45 | 15.03899 | 121.92837 | 33996 ft | 443 kts | 226° |
| 2026-05-06 23:45 | 15.02063 | 121.90346 | 33836 ft | 430 kts | 242° |
| 2026-05-06 23:45 | 15.00876 | 121.87555 | 33617 ft | 420 kts | 253° |
| 2026-05-06 23:46 | 15.00309 | 121.84632 | 33223 ft | 412 kts | 266° |
| 2026-05-06 23:46 | 15.00145 | 121.81678 | 32671 ft | 412 kts | 267° |
| 2026-05-06 23:46 | 15.00015 | 121.78719 | 32146 ft | 412 kts | 268° |
| 2026-05-06 23:46 | 14.99889 | 121.75762 | 31680 ft | 410 kts | 268° |
| 2026-05-06 23:47 | 14.99755 | 121.72824 | 31268 ft | 407 kts | 268° |
| 2026-05-06 23:47 | 14.99612 | 121.69906 | 30846 ft | 405 kts | 268° |
| 2026-05-06 23:47 | 14.99460 | 121.67004 | 30438 ft | 403 kts | 268° |
| 2026-05-06 23:47 | 14.99303 | 121.64119 | 30041 ft | 401 kts | 268° |
| 2026-05-06 23:48 | 14.99143 | 121.61242 | 29568 ft | 399 kts | 268° |
| 2026-05-06 23:48 | 14.98983 | 121.58388 | 29119 ft | 397 kts | 268° |
| 2026-05-06 23:48 | 14.98822 | 121.55545 | 28684 ft | 394 kts | 268° |
| 2026-05-06 23:48 | 14.98662 | 121.52722 | 28262 ft | 392 kts | 268° |
| 2026-05-06 23:49 | 14.98501 | 121.49899 | 27471 ft | 399 kts | 268° |
| 2026-05-06 23:49 | 14.98336 | 121.46958 | 26101 ft | 421 kts | 268° |
| 2026-05-06 23:49 | 14.98161 | 121.43858 | 24666 ft | 445 kts | 267° |
| 2026-05-06 23:49 | 14.97976 | 121.40632 | 24042 ft | 448 kts | 267° |
| 2026-05-06 23:50 | 14.97793 | 121.37468 | 23959 ft | 433 kts | 267° |
| 2026-05-06 23:50 | 14.97443 | 121.31441 | 23802 ft | 404 kts | 267° |
| 2026-05-06 23:50 | 14.97279 | 121.28633 | 23512 ft | 378 kts | 267° |
| 2026-05-06 23:51 | 14.97125 | 121.25973 | 22836 ft | 366 kts | 267° |
| 2026-05-06 23:51 | 14.96974 | 121.23351 | 21983 ft | 367 kts | 266° |
| 2026-05-06 23:51 | 14.96821 | 121.20698 | 21494 ft | 370 kts | 267° |
| 2026-05-06 23:51 | 14.96719 | 121.18944 | 21321 ft | 368 kts | 266° |
| 2026-05-06 23:52 | 14.96567 | 121.16328 | 21121 ft | 362 kts | 266° |
| 2026-05-06 23:52 | 14.96416 | 121.13744 | 20853 ft | 359 kts | 266° |
| 2026-05-06 23:52 | 14.96217 | 121.10339 | 20419 ft | 357 kts | 266° |
| 2026-05-06 23:52 | 14.96066 | 121.07773 | 20079 ft | 357 kts | 266° |
| 2026-05-06 23:53 | 14.95916 | 121.05213 | 19767 ft | 356 kts | 266° |
| 2026-05-06 23:53 | 14.95814 | 121.03490 | 19562 ft | 355 kts | 266° |
| 2026-05-06 23:53 | 14.95664 | 121.00949 | 19270 ft | 354 kts | 266° |
| 2026-05-06 23:53 | 14.95515 | 120.98415 | 18975 ft | 353 kts | 266° |
| 2026-05-06 23:54 | 14.95365 | 120.95885 | 18687 ft | 352 kts | 266° |
| 2026-05-06 23:54 | 14.95216 | 120.93378 | 18446 ft | 348 kts | 266° |
| 2026-05-06 23:54 | 14.95068 | 120.90883 | 18104 ft | 347 kts | 266° |
| 2026-05-06 23:54 | 14.94922 | 120.88424 | 17699 ft | 346 kts | 266° |
| 2026-05-06 23:55 | 14.94774 | 120.85947 | 17292 ft | 345 kts | 266° |
| 2026-05-06 23:55 | 14.94360 | 120.83540 | 16861 ft | 339 kts | 247° |
| 2026-05-06 23:55 | 14.93094 | 120.81517 | 16498 ft | 334 kts | 224° |
| 2026-05-06 23:55 | 14.91269 | 120.80075 | 16123 ft | 330 kts | 206° |
| 2026-05-06 23:56 | 14.89162 | 120.79152 | 15774 ft | 327 kts | 199° |
| 2026-05-06 23:56 | 14.87028 | 120.78339 | 15390 ft | 327 kts | 198° |
| 2026-05-06 23:56 | 14.84889 | 120.77541 | 15014 ft | 327 kts | 198° |
| 2026-05-06 23:56 | 14.82755 | 120.76739 | 14639 ft | 327 kts | 198° |
| 2026-05-06 23:57 | 14.80618 | 120.75927 | 14244 ft | 327 kts | 199° |
| 2026-05-06 23:57 | 14.78484 | 120.75106 | 13866 ft | 328 kts | 199° |
| 2026-05-06 23:57 | 14.76346 | 120.74281 | 13465 ft | 328 kts | 199° |
| 2026-05-06 23:57 | 14.74224 | 120.73471 | 13206 ft | 322 kts | 199° |
| 2026-05-06 23:58 | 14.72142 | 120.72682 | 12976 ft | 316 kts | 198° |
| 2026-05-06 23:58 | 14.70092 | 120.71905 | 12678 ft | 313 kts | 198° |
| 2026-05-06 23:58 | 14.68049 | 120.71131 | 12307 ft | 312 kts | 199° |
| 2026-05-06 23:58 | 14.66021 | 120.70362 | 11958 ft | 310 kts | 199° |
| 2026-05-06 23:59 | 14.63996 | 120.69594 | 11621 ft | 309 kts | 199° |
| 2026-05-06 23:59 | 14.61982 | 120.68830 | 11304 ft | 307 kts | 199° |
| 2026-05-06 23:59 | 14.59992 | 120.68075 | 11036 ft | 303 kts | 199° |
| 2026-05-06 23:59 | 14.58037 | 120.67332 | 10867 ft | 296 kts | 199° |
| 2026-05-07 00:00 | 14.56123 | 120.66605 | 10659 ft | 291 kts | 199° |
| 2026-05-07 00:00 | 14.54231 | 120.65888 | 10356 ft | 289 kts | 199° |
| 2026-05-07 00:00 | 14.52337 | 120.65170 | 10049 ft | 289 kts | 199° |
| 2026-05-07 00:00 | 14.50458 | 120.64457 | 9749 ft | 287 kts | 199° |
| 2026-05-07 00:01 | 14.48585 | 120.63747 | 9435 ft | 286 kts | 199° |
| 2026-05-07 00:01 | 14.46723 | 120.63040 | 9094 ft | 285 kts | 197° |
| 2026-05-07 00:01 | 14.44811 | 120.62644 | 8565 ft | 280 kts | 172° |
| 2026-05-07 00:01 | 14.42971 | 120.63190 | 8176 ft | 273 kts | 149° |
| 2026-05-07 00:02 | 14.41331 | 120.64155 | 7860 ft | 271 kts | 147° |
| 2026-05-07 00:02 | 14.39699 | 120.65121 | 7539 ft | 270 kts | 148° |
| 2026-05-07 00:02 | 14.38108 | 120.66056 | 7419 ft | 261 kts | 148° |
| 2026-05-07 00:02 | 14.36556 | 120.66964 | 7345 ft | 251 kts | 148° |
| 2026-05-07 00:03 | 14.35096 | 120.67877 | 7178 ft | 239 kts | 137° |
| 2026-05-07 00:03 | 14.34168 | 120.69219 | 6958 ft | 227 kts | 106° |
| 2026-05-07 00:03 | 14.33989 | 120.70783 | 6780 ft | 217 kts | 86° |
| 2026-05-07 00:03 | 14.34313 | 120.72270 | 6525 ft | 213 kts | 67° |
| 2026-05-07 00:04 | 14.35023 | 120.73624 | 6177 ft | 215 kts | 61° |
| 2026-05-07 00:04 | 14.35790 | 120.74951 | 5861 ft | 215 kts | 61° |
| 2026-05-07 00:04 | 14.36541 | 120.76262 | 5671 ft | 210 kts | 61° |
| 2026-05-07 00:04 | 14.37274 | 120.77556 | 5361 ft | 209 kts | 62° |
| 2026-05-07 00:05 | 14.38002 | 120.78854 | 5059 ft | 209 kts | 61° |
| 2026-05-07 00:05 | 14.38725 | 120.80147 | 4779 ft | 207 kts | 62° |
| 2026-05-07 00:05 | 14.39428 | 120.81408 | 4501 ft | 205 kts | 62° |
| 2026-05-07 00:05 | 14.40137 | 120.82678 | 4230 ft | 204 kts | 62° |
| 2026-05-07 00:06 | 14.40849 | 120.83958 | 3844 ft | 208 kts | 62° |
| 2026-05-07 00:06 | 14.41572 | 120.85257 | 3550 ft | 210 kts | 62° |
| 2026-05-07 00:06 | 14.42285 | 120.86535 | 3483 ft | 201 kts | 62° |
| 2026-05-07 00:06 | 14.42967 | 120.87758 | 3412 ft | 191 kts | 63° |
| 2026-05-07 00:07 | 14.43611 | 120.88916 | 3349 ft | 181 kts | 62° |
| 2026-05-07 00:07 | 14.44226 | 120.90020 | 3180 ft | 176 kts | 62° |
| 2026-05-07 00:07 | 14.44830 | 120.91111 | 2924 ft | 175 kts | 62° |
| 2026-05-07 00:07 | 14.45434 | 120.92253 | 2420 ft | 189 kts | 63° |
| 2026-05-07 00:08 | 14.46044 | 120.93491 | 2032 ft | 194 kts | 63° |
| 2026-05-07 00:08 | 14.46656 | 120.94715 | 1530 ft | 193 kts | 62° |
| 2026-05-07 00:08 | 14.47299 | 120.95943 | 1004 ft | 191 kts | 59° |
| 2026-05-07 00:08 | 14.47979 | 120.97033 | 825 ft | 171 kts | 57° |
| 2026-05-07 00:09 | 14.48644 | 120.97992 | 540 ft | 155 kts | 50° |
| 2026-05-07 00:09 | 14.49192 | 120.98874 | 267 ft | 141 kts | 53° |
| 2026-05-07 00:09 | 14.49707 | 120.99802 | 236 ft | 152 kts | 63° |
| 2026-05-07 00:09 | 14.50204 | 121.00759 | 382 ft | 153 kts | 63° |
| 2026-05-07 00:10 | 14.50730 | 121.01726 | 788 ft | 157 kts | 61° |
| 2026-05-07 00:10 | 14.51288 | 121.02738 | 1233 ft | 167 kts | 61° |
| 2026-05-07 00:10 | 14.51883 | 121.03816 | 1832 ft | 173 kts | 61° |
| 2026-05-07 00:10 | 14.52480 | 121.04893 | 2522 ft | 173 kts | 61° |
| 2026-05-07 00:11 | 14.53068 | 121.05958 | 3283 ft | 172 kts | 62° |
| 2026-05-07 00:11 | 14.53679 | 121.07068 | 4046 ft | 190 kts | 62° |
| 2026-05-07 00:11 | 14.54392 | 121.08363 | 4476 ft | 226 kts | 62° |
| 2026-05-07 00:11 | 14.55190 | 121.09837 | 5248 ft | 239 kts | 65° |
| 2026-05-07 00:12 | 14.55539 | 121.11510 | 5783 ft | 244 kts | 96° |
| 2026-05-07 00:12 | 14.54953 | 121.13157 | 6040 ft | 252 kts | 121° |
| 2026-05-07 00:12 | 14.53914 | 121.14704 | 6042 ft | 268 kts | 124° |
| 2026-05-07 00:12 | 14.52831 | 121.16293 | 6041 ft | 272 kts | 124° |
| 2026-05-07 00:13 | 14.51734 | 121.17893 | 6035 ft | 272 kts | 125° |
| 2026-05-07 00:13 | 14.50357 | 121.19185 | 6026 ft | 273 kts | 153° |
| 2026-05-07 00:13 | 14.48484 | 121.19589 | 6028 ft | 281 kts | 180° |
| 2026-05-07 00:13 | 14.46568 | 121.19145 | 6038 ft | 288 kts | 202° |
| 2026-05-07 00:14 | 14.44924 | 121.17950 | 6021 ft | 293 kts | 226° |
| 2026-05-07 00:14 | 14.43906 | 121.16141 | 6020 ft | 295 kts | 253° |
| 2026-05-07 00:14 | 14.43782 | 121.14049 | 6015 ft | 294 kts | 281° |
| 2026-05-07 00:14 | 14.44540 | 121.12122 | 6024 ft | 287 kts | 303° |
| 2026-05-07 00:15 | 14.45637 | 121.10405 | 6035 ft | 287 kts | 304° |
| 2026-05-07 00:15 | 14.46735 | 121.08674 | 6037 ft | 289 kts | 304° |
| 2026-05-07 00:15 | 14.47831 | 121.06928 | 6036 ft | 291 kts | 304° |
| 2026-05-07 00:15 | 14.48899 | 121.05188 | 6027 ft | 289 kts | 299° |
| 2026-05-07 00:16 | 14.49449 | 121.03222 | 6035 ft | 288 kts | 271° |
| 2026-05-07 00:16 | 14.49081 | 121.01191 | 6030 ft | 290 kts | 245° |
| 2026-05-07 00:16 | 14.47954 | 120.99497 | 5633 ft | 294 kts | 221° |
| 2026-05-07 00:16 | 14.46319 | 120.98115 | 5467 ft | 305 kts | 217° |
| 2026-05-07 00:17 | 14.44676 | 120.96746 | 4872 ft | 302 kts | 217° |
| 2026-05-07 00:17 | 14.43063 | 120.95372 | 4042 ft | 299 kts | 218° |
| 2026-05-07 00:17 | 14.41490 | 120.94014 | 3355 ft | 290 kts | 218° |
| 2026-05-07 00:17 | 14.39979 | 120.92697 | 2813 ft | 277 kts | 217° |
| 2026-05-07 00:18 | 14.38548 | 120.91448 | 2629 ft | 273 kts | 217° |
| 2026-05-07 00:18 | 14.37079 | 120.90165 | 2541 ft | 276 kts | 217° |
| 2026-05-07 00:18 | 14.35639 | 120.88900 | 2506 ft | 265 kts | 218° |
| 2026-05-07 00:18 | 14.34493 | 120.87489 | 2397 ft | 256 kts | 247° |
| 2026-05-07 00:19 | 14.34340 | 120.85730 | 2290 ft | 244 kts | 289° |
| 2026-05-07 00:19 | 14.35120 | 120.84279 | 2226 ft | 224 kts | 308° |
| 2026-05-07 00:19 | 14.36130 | 120.83120 | 2224 ft | 216 kts | 332° |
| 2026-05-07 00:19 | 14.37542 | 120.82812 | 2222 ft | 209 kts | 16° |
| 2026-05-07 00:20 | 14.38700 | 120.83598 | 2215 ft | 199 kts | 51° |
| 2026-05-07 00:20 | 14.39745 | 120.84513 | 2144 ft | 205 kts | 21° |
| 2026-05-07 00:20 | 14.41163 | 120.84695 | 2129 ft | 205 kts | 14° |
| 2026-05-07 00:20 | 14.42401 | 120.85368 | 2045 ft | 201 kts | 51° |
| 2026-05-07 00:21 | 14.42985 | 120.86615 | 1974 ft | 186 kts | 74° |
| 2026-05-07 00:21 | 14.43422 | 120.87820 | 1900 ft | 172 kts | 68° |
| 2026-05-07 00:21 | 14.43886 | 120.88925 | 1795 ft | 171 kts | 65° |
| 2026-05-07 00:21 | 14.44446 | 120.90059 | 1790 ft | 181 kts | 62° |
| 2026-05-07 00:22 | 14.45044 | 120.91177 | 1724 ft | 178 kts | 62° |
| 2026-05-07 00:22 | 14.45632 | 120.92270 | 1744 ft | 174 kts | 62° |
| 2026-05-07 00:22 | 14.46228 | 120.93377 | 1488 ft | 173 kts | 62° |
| 2026-05-07 00:22 | 14.46789 | 120.94421 | 1310 ft | 159 kts | 61° |
| 2026-05-07 00:23 | 14.47309 | 120.95392 | 1055 ft | 151 kts | 62° |
| 2026-05-07 00:23 | 14.47813 | 120.96329 | 865 ft | 150 kts | 62° |
| 2026-05-07 00:23 | 14.48326 | 120.97290 | 747 ft | 157 kts | 62° |
| 2026-05-07 00:23 | 14.48876 | 120.98308 | 533 ft | 164 kts | 61° |
| 2026-05-07 00:24 | 14.49427 | 120.99312 | 290 ft | 157 kts | 61° |
| 2026-05-07 00:24 | 14.49930 | 121.00264 | 92 ft | 146 kts | 62° |
| 2026-05-07 00:24 | 14.50381 | 121.01083 | 70 ft | 112 kts | 59° |
| 2026-05-07 00:24 | 14.50693 | 121.01642 | 69 ft | 71 kts | 60° |
| 2026-05-07 00:25 | 14.50876 | 121.01972 | 67 ft | 0 kts | 60° |
| 2026-05-07 00:25 | 14.50903 | 121.01993 | 66 ft | 14 kts | 18° |
| 2026-05-07 00:25 | 14.50977 | 121.01973 | 67 ft | 0 kts | 326° |
| 2026-05-07 00:26 | 14.50990 | 121.01963 | 64 ft | 4 kts | 324° |
| 2026-05-07 00:26 | 14.51022 | 121.01934 | 63 ft | 8 kts | 315° |
| 2026-05-07 00:27 | 14.51047 | 121.01879 | 74 ft | 10 kts | 272° |
| 2026-05-07 00:27 | 14.51023 | 121.01805 | 65 ft | 12 kts | 242° |
| 2026-05-07 00:27 | 14.50977 | 121.01717 | 65 ft | 16 kts | 242° |
| 2026-05-07 00:27 | 14.50916 | 121.01614 | 64 ft | 18 kts | 236° |
| 2026-05-07 00:28 | 14.50853 | 121.01498 | 63 ft | 20 kts | 241° |
| 2026-05-07 00:28 | 14.50781 | 121.01367 | 63 ft | 22 kts | 240° |
| 2026-05-07 00:28 | 14.50727 | 121.01271 | 63 ft | 0 kts | 255° |
| 2026-05-07 00:28 | 14.50741 | 121.01248 | 68 ft | 7 kts | 307° |
| 2026-05-07 00:29 | 14.50777 | 121.01209 | 65 ft | 7 kts | 325° |
| 2026-05-07 00:29 | 14.50779 | 121.01207 | 65 ft | 0 kts | 326° |